Aruba Airport

METAR YSSY 180300Z 04015KT CAVOK 28/17 Q1010 RMK RF00.0/000.0

Bonaire Airport

METAR YSSY 180300Z 04015KT CAVOK 28/17 Q1010 RMK RF00.0/000.0

Curacao Airport

METAR YSSY 180300Z 04015KT CAVOK 28/17 Q1010 RMK RF00.0/000.0